Terminal Aerodrome Forecast
Issued by NWS

Home | Current Version | Previous Version | Text Only | Print | Product List | Glossary Off
Versions: 1 2 3 4 5 6 7 8 9 10 11 12 13 14 15 16 17

044
FTUS43 KICT 210520
TAFRSL
TAF
KRSL 210520Z 2106/2206 05011KT P6SM BKN250
     FM211500 04016G23KT P6SM BKN050=

USA.gov is the U.S. government's official web portal to all federal, state and local government web resources and services.